Latest Weather Observations for Blackwater Airport

IDQ60801

Issued at 8:32 am EST Monday 26 June 2017 (issued every 30 minutes, with the page automatically refreshed every 10 minutes)

About weather observations | Map of weather stations | Latest weather observations for QLD | Other Formats
Station Details ID: 035134 Name: BLACKWATER AIRPORT Lat: -23.60 Lon: 148.81 Height: 192.95 m
Data from the previous 72 hours. | See also: Recent months at Blackwater Airport
Date/Time
EST
Temp
°C
App
Temp
°C
Dew
Point
°C
Rel
Hum
%
Delta-T
°C
Wind Press
QNH
hPa
Press
MSL
hPa
Rain since
9am
mm
Dir  Spd
km/h
Gust
km/h
Spd
kts
Gust
kts
26/08:30am 18.3 17.7 12.3 68 3.3 NE 7 11 4 6 1021.6 1021.3 0.0
26/08:00am 14.1 14.0 10.7 80 1.8 SSW 2 6 1 3 1021.4 1021.1 0.0
26/07:30am 10.8 9.2 8.6 86 1.1 SSW 7 9 4 5 1021.2 1020.9 0.0
26/07:00am 9.0 6.3 7.3 89 0.8 SSW 11 13 6 7 1020.6 1020.2 0.0
26/06:30am 8.6 7.4 6.6 87 0.9 SSW 2 7 1 4 1020.1 1019.7 0.0
26/06:00am 9.1 8.4 6.9 86 1.0 CALM 0 0 0 0 1019.7 1019.3 0.0
26/05:30am 9.3 7.9 7.1 86 1.0 SSW 4 7 2 4 1019.8 1019.4 0.0
26/05:00am 9.7 7.7 7.3 85 1.1 SSW 7 9 4 5 1019.7 1019.3 0.0
26/04:30am 9.4 7.2 6.3 81 1.4 SSW 7 9 4 5 1019.6 1019.2 0.0
26/04:00am 10.3 8.4 6.8 79 1.7 ENE 6 6 3 3 1019.4 1019.1 0.0
26/03:30am 11.0 9.5 6.7 75 2.1 ENE 4 6 2 3 1019.2 1018.9 0.0
26/03:00am 13.1 11.2 9.2 77 2.0 ENE 9 9 5 5 1019.3 1019.0 0.0
26/02:30am 13.5 12.0 9.2 75 2.2 ENE 7 9 4 5 1019.4 1019.1 0.0
26/02:00am 13.4 11.5 8.9 74 2.3 NE 9 11 5 6 1019.3 1019.0 0.0
26/01:30am 13.8 11.1 8.8 72 2.5 ENE 13 13 7 7 1019.3 1019.0 0.0
26/01:00am 13.7 11.3 7.2 65 3.2 NE 9 11 5 6 1019.4 1019.1 0.0
26/12:30am 13.9 11.2 7.4 65 3.2 ENE 11 15 6 8 1019.4 1019.1 0.0
26/12:00am 13.0 10.8 6.1 63 3.3 ENE 7 9 4 5 1019.7 1019.3 0.0
 
Date/Time
EST
Temp
°C
App
Temp
°C
Dew
Point
°C
Rel
Hum
%
Delta-T
°C
Wind Press
QNH
hPa
Press
MSL
hPa
Rain since
9am
mm
Dir  Spd
km/h
Gust
km/h
Spd
kts
Gust
kts
25/11:30pm 13.8 11.6 6.2 60 3.7 NE 7 9 4 5 1019.7 1019.3 0.0
25/11:00pm 11.9 9.6 4.9 62 3.2 SSW 6 6 3 3 1019.6 1019.2 0.0
25/10:30pm 12.2 9.7 4.9 61 3.4 SSW 7 9 4 5 1019.8 1019.4 0.0
25/10:00pm 11.8 10.6 4.5 61 3.3 CALM 0 0 0 0 1020.0 1019.6 0.0
25/09:30pm 13.0 10.5 4.9 58 3.8 NW 7 9 4 5 1019.8 1019.4 0.0
25/09:00pm 13.0 10.6 4.4 56 4.0 NNW 6 7 3 4 1019.7 1019.3 0.0
25/08:30pm 15.5 13.3 5.1 50 5.0 E 6 7 3 4 1019.2 1018.9 0.0
25/08:00pm 15.8 13.6 5.4 50 5.0 E 6 7 3 4 1018.9 1018.6 0.0
25/07:30pm 15.8 13.4 4.2 46 5.4 ENE 6 7 3 4 1018.7 1018.4 0.0
25/07:00pm 17.6 14.9 5.5 45 5.9 NE 9 11 5 6 1018.4 1018.1 0.0
25/06:30pm 18.5 15.8 5.4 42 6.4 NE 9 11 5 6 1018.0 1017.7 0.0
25/06:00pm 19.2 16.0 4.9 39 7.0 NE 11 13 6 7 1017.7 1017.4 0.0
25/05:30pm 20.7 17.4 4.7 35 7.9 NE 11 13 6 7 1017.5 1017.2 0.0
25/05:00pm 23.6 20.8 5.0 30 9.4 NE 9 13 5 7 1017.5 1017.2 0.0
25/04:30pm 25.3 23.0 5.5 28 10.2 NE 7 13 4 7 1017.3 1017.0 0.0
25/04:00pm 25.7 23.4 4.8 26 10.6 NW 6 15 3 8 1017.1 1016.8 0.0
25/03:30pm 25.3 22.5 5.0 27 10.4 SE 9 13 5 7 1017.1 1016.8 0.0
25/03:00pm 26.0 23.2 5.0 26 10.7 WNW 9 13 5 7 1017.0 1016.7 0.0
25/02:30pm 26.0 22.8 5.0 26 10.8 NE 11 19 6 10 1017.3 1017.0 0.0
25/02:00pm 25.0 22.6 5.2 28 10.1 SSE 7 17 4 9 1017.6 1017.3 0.0
25/01:30pm 25.1 21.8 4.8 27 10.3 ENE 11 19 6 10 1017.7 1017.4 0.0
25/01:00pm 26.3 23.0 6.4 28 10.4 NE 13 19 7 10 1018.1 1017.8 0.0
25/12:30pm 25.2 23.2 6.4 30 9.8 NNW 6 11 3 6 1018.4 1018.1 0.0
25/12:00pm 25.1 22.8 7.3 32 9.4 NNE 9 17 5 9 1018.9 1018.6 0.0
25/11:30am 23.6 20.7 6.4 33 8.9 SE 11 24 6 13 1019.4 1019.1 0.0
25/11:00am 23.9 21.5 7.1 34 8.8 NNE 9 15 5 8 1019.8 1019.4 0.0
25/10:30am 23.2 21.0 7.7 37 8.2 NNE 9 17 5 9 1020.1 1019.7 0.0
25/10:00am 22.9 20.7 7.8 38 8.0 NW 9 13 5 7 1020.4 1020.0 0.0
25/09:30am 21.2 19.7 8.5 44 6.7 SSE 6 7 3 4 1020.6 1020.2 0.0
25/09:00am 19.9 18.5 8.9 49 5.8 S 6 9 3 5 1020.5 1020.1 0.0
25/08:30am 18.3 16.9 9.4 56 4.7 SSE 7 7 4 4 1020.0 1019.6 0.0
25/08:00am 15.0 13.8 10.2 73 2.5 SSE 7 9 4 5 1019.7 1019.3 0.0
25/07:30am 11.6 9.7 9.0 84 1.3 SSE 9 11 5 6 1019.3 1019.0 0.0
25/07:00am 8.7 5.9 6.8 88 0.9 S 11 13 6 7 1018.9 1018.6 0.0
25/06:30am 8.6 6.4 6.1 84 1.2 S 7 7 4 4 1018.9 1018.6 0.0
25/06:00am 8.7 6.2 6.7 87 0.9 S 9 11 5 6 1018.9 1018.6 0.0
25/05:30am 8.6 6.1 6.4 86 1.0 S 9 9 5 5 1018.4 1018.1 0.0
25/05:00am 8.4 5.8 5.9 84 1.1 S 9 9 5 5 1018.2 1017.9 0.0
25/04:30am 8.6 6.3 5.7 82 1.3 SSW 7 7 4 4 1018.3 1018.0 0.0
25/04:00am 8.9 6.7 6.3 84 1.2 SSW 7 9 4 5 1018.4 1018.1 0.0
25/03:30am 9.0 6.3 5.7 80 1.5 SSW 9 13 5 7 1018.4 1018.1 0.0
25/03:00am 9.9 7.8 5.9 76 1.9 ESE 6 6 3 3 1018.4 1018.1 0.0
25/02:30am 11.5 9.2 7.4 76 2.0 ESE 9 11 5 6 1018.5 1018.2 0.0
25/02:00am 11.8 9.9 7.5 75 2.1 ESE 7 9 4 5 1018.7 1018.4 0.0
25/01:30am 11.5 9.5 7.2 75 2.1 E 7 9 4 5 1018.8 1018.5 0.0
25/01:00am 10.7 9.9 6.5 75 2.0 CALM 0 0 0 0 1019.0 1018.7 0.0
25/12:30am 10.7 9.9 6.5 75 2.0 CALM 0 0 0 0 1019.1 1018.8 0.0
25/12:00am 10.6 9.7 6.2 74 2.1 CALM 0 0 0 0 1019.2 1018.9 0.0
 
Date/Time
EST
Temp
°C
App
Temp
°C
Dew
Point
°C
Rel
Hum
%
Delta-T
°C
Wind Press
QNH
hPa
Press
MSL
hPa
Rain since
9am
mm
Dir  Spd
km/h
Gust
km/h
Spd
kts
Gust
kts
24/11:30pm 11.2 10.4 6.3 72 2.3 CALM 0 0 0 0 1019.0 1018.7 0.0
24/11:00pm 11.6 10.8 6.7 72 2.3 CALM 0 0 0 0 1019.0 1018.7 0.0
24/10:30pm 12.8 11.6 6.4 65 3.1 E 2 6 1 3 1019.2 1018.9 0.0
24/10:00pm 15.2 13.7 8.4 64 3.5 E 6 9 3 5 1019.1 1018.8 0.0
24/09:30pm 14.4 12.6 7.2 62 3.6 ESE 6 7 3 4 1019.0 1018.7 0.0
24/09:00pm 15.2 13.6 8.0 62 3.6 ESE 6 7 3 4 1019.0 1018.7 0.0
24/08:30pm 15.4 13.5 7.4 59 4.0 ESE 7 11 4 6 1018.8 1018.5 0.0
24/08:00pm 16.0 15.4 7.5 57 4.3 CALM 0 0 0 0 1018.6 1018.3 0.0
24/07:30pm 15.9 15.0 7.7 58 4.1 W 2 7 1 4 1018.3 1018.0 0.0
24/07:00pm 17.3 15.1 7.9 54 4.8 W 9 11 5 6 1017.6 1017.3 0.0
24/06:30pm 18.5 16.3 7.9 50 5.5 NNE 9 11 5 6 1017.3 1017.0 0.0
24/06:00pm 19.6 17.4 7.7 46 6.1 NNE 9 13 5 7 1017.0 1016.7 0.0
24/05:30pm 21.9 20.2 7.7 40 7.5 N 6 7 3 4 1016.8 1016.5 0.0
24/05:00pm 23.8 22.2 7.8 36 8.5 NNW 6 7 3 4 1016.6 1016.2 0.0
24/04:30pm 24.8 22.9 7.4 33 9.2 N 7 11 4 6 1016.4 1016.0 0.0
24/04:00pm 25.1 23.3 8.1 34 9.1 ESE 7 15 4 8 1016.2 1015.8 0.0
24/03:30pm 25.7 24.1 8.2 33 9.5 N 6 15 3 8 1016.3 1015.9 0.0
24/03:00pm 24.5 23.0 8.5 36 8.6 S 6 9 3 5 1016.5 1016.1 0.0
24/02:30pm 24.8 22.8 8.7 36 8.7 WSW 9 15 5 8 1016.7 1016.3 0.0
24/02:00pm 24.6 22.6 8.5 36 8.7 SW 9 13 5 7 1016.8 1016.5 0.0
24/01:30pm 24.7 23.1 8.6 36 8.7 SE 7 17 4 9 1017.0 1016.7 0.0
24/01:00pm 25.4 23.3 9.7 37 8.7 S 11 17 6 9 1017.4 1017.1 0.0
24/12:30pm 23.8 21.9 9.0 39 8.0 W 9 19 5 10 1017.9 1017.6 0.0
24/12:00pm 23.6 21.4 9.2 40 7.8 E 11 20 6 11 1018.7 1018.4 0.0
24/11:30am 22.5 20.5 8.6 41 7.4 WSW 9 15 5 8 1019.3 1019.0 0.0
24/11:00am 23.3 21.6 9.7 42 7.4 WSW 9 15 5 8 1019.7 1019.3 0.0
24/10:30am 22.1 21.3 11.2 50 6.1 NNW 6 9 3 5 1020.0 1019.6 0.0
24/10:00am 21.8 21.7 12.1 54 5.5 NW 4 9 2 5 1020.3 1019.9 0.0
24/09:30am 20.2 19.7 12.7 62 4.3 NW 7 9 4 5 1020.5 1020.1 0.0
24/09:00am 18.3 18.3 12.3 68 3.3 S 4 9 2 5 1020.6 1020.2 0.0
24/08:30am 16.8 16.1 11.9 73 2.7 S 7 9 4 5 1020.5 1020.1 0.0
24/08:00am 13.5 12.2 10.1 80 1.8 SSW 7 7 4 4 1020.2 1019.8 0.0
24/07:30am 10.2 7.3 8.0 86 1.1 SSW 13 13 7 7 1020.0 1019.6 0.0
24/07:00am 8.3 5.4 6.4 88 0.9 S 11 13 6 7 1019.7 1019.3 0.0
24/06:30am 8.5 6.3 6.0 84 1.2 SSE 7 7 4 4 1019.1 1018.8 0.0
24/06:00am 8.6 6.4 6.2 85 1.1 SSE 7 7 4 4 1018.9 1018.6 0.0
24/05:30am 8.7 6.5 6.0 83 1.2 S 7 9 4 5 1018.6 1018.3 0.0
24/05:00am 9.3 8.4 5.9 79 1.6 CALM 0 0 0 0 1018.4 1018.1 0.0
24/04:30am 9.9 9.1 6.6 80 1.6 CALM 0 0 0 0 1018.3 1018.0 0.0
24/04:00am 9.4 7.4 6.1 80 1.5 SSW 6 9 3 5 1018.4 1018.1 0.0
24/03:30am 9.6 7.1 6.5 81 1.5 SSW 9 9 5 5 1018.5 1018.2 0.0
24/03:00am 9.9 7.7 6.4 79 1.6 SSW 7 9 4 5 1018.7 1018.4 0.0
24/02:30am 9.9 7.7 6.3 78 1.7 SSW 7 9 4 5 1018.9 1018.6 0.0
24/02:00am 9.6 7.3 5.8 77 1.8 SSW 7 9 4 5 1019.2 1018.9 0.0
24/01:30am 10.5 8.4 6.6 77 1.9 SSW 7 7 4 4 1019.1 1018.8 0.0
24/01:00am 9.6 7.3 5.6 76 1.8 SSW 7 7 4 4 1019.1 1018.8 0.0
24/12:30am 9.9 7.7 5.5 74 2.0 SSW 6 7 3 4 1019.1 1018.8 0.0
24/12:00am 10.8 8.6 6.2 73 2.2 SSW 7 7 4 4 1019.4 1019.1 0.0
 
Date/Time
EST
Temp
°C
App
Temp
°C
Dew
Point
°C
Rel
Hum
%
Delta-T
°C
Wind Press
QNH
hPa
Press
MSL
hPa
Rain since
9am
mm
Dir  Spd
km/h
Gust
km/h
Spd
kts
Gust
kts
23/11:30pm 10.7 8.6 5.7 71 2.3 S 6 7 3 4 1019.8 1019.4 0.0
23/11:00pm 11.6 9.4 6.1 69 2.6 S 7 7 4 4 1020.1 1019.7 0.0
23/10:30pm 11.9 9.7 6.4 69 2.6 SSW 7 9 4 5 1020.4 1020.0 0.0
23/10:00pm 14.6 12.6 6.4 58 4.0 SE 6 6 3 3 1020.6 1020.2 0.0
23/09:30pm 14.5 12.5 7.1 61 3.7 SE 7 7 4 4 1020.5 1020.1 0.0
23/09:00pm 14.7 12.5 6.0 56 4.2 SE 7 7 4 4 1020.5 1020.1 0.0
23/08:30pm 15.8 13.9 6.8 55 4.5 SE 6 7 3 4 1020.5 1020.1 0.0
23/08:00pm 17.1 15.1 7.2 52 5.0 SE 7 9 4 5 1020.5 1020.1 0.0
23/07:30pm 16.6 13.9 7.5 55 4.6 S 11 15 6 8 1020.3 1019.9 0.0
23/07:00pm 17.3 15.4 7.4 52 5.0 NE 7 9 4 5 1019.7 1019.3 0.0
23/06:30pm 17.8 15.4 7.0 49 5.4 NE 9 11 5 6 1019.2 1018.9 0.0
23/06:00pm 18.6 16.2 7.1 47 5.8 NE 9 11 5 6 1018.8 1018.5 0.0
23/05:30pm 20.5 18.1 6.8 41 7.0 NNE 9 9 5 5 1018.5 1018.2 0.0
23/05:00pm 22.5 19.6 6.7 36 8.2 NNE 11 13 6 7 1018.5 1018.2 0.0
23/04:30pm 24.5 22.5 7.2 33 9.1 NNW 7 9 4 5 1018.4 1018.1 0.0
23/04:00pm 24.4 22.4 7.1 33 9.1 NNE 7 17 4 9 1018.1 1017.8 0.0
23/03:30pm 24.8 21.7 7.4 33 9.2 N 13 19 7 10 1018.1 1017.8 0.0
23/03:00pm 24.2 21.5 7.4 34 8.9 SSE 11 17 6 9 1018.1 1017.8 0.0
23/02:30pm 24.0 21.0 7.6 35 8.7 E 13 17 7 9 1018.4 1018.1 0.0
23/02:00pm 23.7 21.5 7.8 36 8.4 E 9 17 5 9 1019.0 1018.7 0.0
23/01:30pm 23.9 21.2 7.5 35 8.7 ESE 11 17 6 9 1019.3 1019.0 0.0
23/01:00pm 25.0 22.6 8.5 35 8.9 NNE 11 17 6 9 1020.0 1019.6 0.0
23/12:30pm 24.3 21.5 8.7 37 8.5 NE 13 20 7 11 1020.6 1020.2 0.0
23/12:00pm 23.6 20.8 8.5 38 8.1 NE 13 20 7 11 1021.1 1020.7 0.0
23/11:30am 23.6 20.5 7.3 35 8.6 NNE 13 20 7 11 1021.5 1021.2 0.0
23/11:00am 22.5 20.1 7.1 37 8.0 NW 9 15 5 8 1022.2 1021.9 0.0
23/10:30am 22.7 21.0 7.7 38 7.9 E 6 13 3 7 1022.7 1022.4 0.0
23/10:00am 20.8 18.7 8.4 45 6.5 ESE 9 13 5 7 1023.1 1022.8 0.0
23/09:30am 20.3 19.4 9.2 49 5.9 NNE 4 7 2 4 1023.2 1022.9 0.0
23/09:00am 19.1 17.9 9.6 54 5.1 N 6 7 3 4 1023.1 1022.8 0.0

Other Formats:

Comma delimited format used in spreadsheet applications
http://www.bom.gov.au/fwo/IDQ60801/IDQ60801.94398.axf

JavaScript Object Notation format (JSON) in row-major order
http://www.bom.gov.au/fwo/IDQ60801/IDQ60801.94398.json